sensor_id;sensor_type;location;lat;lon;timestamp;pressure;altitude;pressure_sealevel;temperature;humidity
48652;BME280;34442;52.362;-1.302;2023-07-24T00:00:37;99019.66;;;17.34;100.00
48652;BME280;34442;52.362;-1.302;2023-07-24T00:03:05;99020.66;;;17.44;100.00
48652;BME280;34442;52.362;-1.302;2023-07-24T00:05:30;99024.19;;;17.44;100.00
48652;BME280;34442;52.362;-1.302;2023-07-24T00:07:56;99016.03;;;17.44;100.00
48652;BME280;34442;52.362;-1.302;2023-07-24T00:10:21;99022.63;;;17.38;100.00
48652;BME280;34442;52.362;-1.302;2023-07-24T00:12:46;99025.66;;;17.31;100.00
48652;BME280;34442;52.362;-1.302;2023-07-24T00:15:12;99025.78;;;17.16;100.00
48652;BME280;34442;52.362;-1.302;2023-07-24T00:17:37;99021.19;;;17.11;100.00
48652;BME280;34442;52.362;-1.302;2023-07-24T00:20:03;99031.25;;;17.11;100.00
48652;BME280;34442;52.362;-1.302;2023-07-24T00:22:29;99031.75;;;17.18;100.00
48652;BME280;34442;52.362;-1.302;2023-07-24T00:24:54;99029.13;;;17.08;100.00
48652;BME280;34442;52.362;-1.302;2023-07-24T00:27:19;99031.41;;;16.85;100.00
48652;BME280;34442;52.362;-1.302;2023-07-24T00:29:45;99026.53;;;16.82;100.00
48652;BME280;34442;52.362;-1.302;2023-07-24T00:32:11;99022.75;;;16.83;100.00
48652;BME280;34442;52.362;-1.302;2023-07-24T00:34:37;99028.25;;;16.73;100.00
48652;BME280;34442;52.362;-1.302;2023-07-24T00:37:03;99018.44;;;16.72;100.00
48652;BME280;34442;52.362;-1.302;2023-07-24T00:39:28;99014.13;;;16.76;100.00
48652;BME280;34442;52.362;-1.302;2023-07-24T00:41:54;99014.38;;;16.80;100.00
48652;BME280;34442;52.362;-1.302;2023-07-24T00:44:20;99002.91;;;16.88;100.00
48652;BME280;34442;52.362;-1.302;2023-07-24T00:46:46;99013.31;;;16.76;100.00
48652;BME280;34442;52.362;-1.302;2023-07-24T00:49:11;99007.94;;;16.60;100.00
48652;BME280;34442;52.362;-1.302;2023-07-24T00:51:37;99008.19;;;16.64;100.00
48652;BME280;34442;52.362;-1.302;2023-07-24T00:54:04;99012.75;;;16.74;100.00
48652;BME280;34442;52.362;-1.302;2023-07-24T00:56:31;99012.72;;;16.84;100.00
48652;BME280;34442;52.362;-1.302;2023-07-24T00:58:57;99005.06;;;16.91;100.00
48652;BME280;34442;52.362;-1.302;2023-07-24T01:01:23;99006.94;;;16.91;100.00
48652;BME280;34442;52.362;-1.302;2023-07-24T01:03:49;99004.84;;;16.82;100.00
48652;BME280;34442;52.362;-1.302;2023-07-24T01:06:14;99006.28;;;16.65;100.00
48652;BME280;34442;52.362;-1.302;2023-07-24T01:08:40;99011.75;;;16.59;100.00
48652;BME280;34442;52.362;-1.302;2023-07-24T01:11:28;99007.13;;;16.60;100.00
48652;BME280;34442;52.362;-1.302;2023-07-24T01:13:58;99008.44;;;16.73;100.00
48652;BME280;34442;52.362;-1.302;2023-07-24T01:16:26;99008.69;;;16.66;100.00
48652;BME280;34442;52.362;-1.302;2023-07-24T01:18:56;99005.75;;;16.62;100.00
48652;BME280;34442;52.362;-1.302;2023-07-24T01:21:41;99001.34;;;16.77;100.00
48652;BME280;34442;52.362;-1.302;2023-07-24T01:24:23;99008.69;;;16.71;100.00
48652;BME280;34442;52.362;-1.302;2023-07-24T01:26:49;99001.16;;;16.58;100.00
48652;BME280;34442;52.362;-1.302;2023-07-24T01:29:15;99006.06;;;16.56;100.00
48652;BME280;34442;52.362;-1.302;2023-07-24T01:31:41;99010.44;;;16.42;100.00
48652;BME280;34442;52.362;-1.302;2023-07-24T01:34:06;99008.28;;;16.44;100.00
48652;BME280;34442;52.362;-1.302;2023-07-24T01:36:31;99010.13;;;16.58;100.00
48652;BME280;34442;52.362;-1.302;2023-07-24T01:38:58;99007.13;;;16.60;100.00
48652;BME280;34442;52.362;-1.302;2023-07-24T01:41:24;99013.75;;;16.38;100.00
48652;BME280;34442;52.362;-1.302;2023-07-24T01:43:50;99010.78;;;16.35;100.00
48652;BME280;34442;52.362;-1.302;2023-07-24T01:46:15;98999.06;;;16.45;100.00
48652;BME280;34442;52.362;-1.302;2023-07-24T01:48:40;99010.50;;;16.36;100.00
48652;BME280;34442;52.362;-1.302;2023-07-24T01:51:06;99007.16;;;16.50;100.00
48652;BME280;34442;52.362;-1.302;2023-07-24T01:53:31;99003.16;;;16.37;100.00
48652;BME280;34442;52.362;-1.302;2023-07-24T01:55:58;99008.53;;;16.47;100.00
48652;BME280;34442;52.362;-1.302;2023-07-24T01:58:23;99013.13;;;16.52;100.00
48652;BME280;34442;52.362;-1.302;2023-07-24T02:00:48;99008.78;;;16.56;100.00
48652;BME280;34442;52.362;-1.302;2023-07-24T02:03:14;99007.72;;;16.52;100.00
48652;BME280;34442;52.362;-1.302;2023-07-24T02:05:39;98999.38;;;16.38;100.00
48652;BME280;34442;52.362;-1.302;2023-07-24T02:08:05;98995.50;;;16.49;100.00
48652;BME280;34442;52.362;-1.302;2023-07-24T02:10:30;99003.94;;;16.48;100.00
48652;BME280;34442;52.362;-1.302;2023-07-24T02:12:55;99002.31;;;16.42;100.00
48652;BME280;34442;52.362;-1.302;2023-07-24T02:15:21;99008.47;;;16.57;100.00
48652;BME280;34442;52.362;-1.302;2023-07-24T02:17:46;99009.72;;;16.31;100.00
48652;BME280;34442;52.362;-1.302;2023-07-24T02:20:12;98996.97;;;16.26;100.00
48652;BME280;34442;52.362;-1.302;2023-07-24T02:22:37;98999.69;;;16.26;100.00
48652;BME280;34442;52.362;-1.302;2023-07-24T02:25:02;99000.81;;;16.15;100.00
48652;BME280;34442;52.362;-1.302;2023-07-24T02:27:30;99003.00;;;16.13;100.00
48652;BME280;34442;52.362;-1.302;2023-07-24T02:29:57;98999.28;;;15.88;100.00
48652;BME280;34442;52.362;-1.302;2023-07-24T02:32:22;99011.22;;;15.82;100.00
48652;BME280;34442;52.362;-1.302;2023-07-24T02:34:52;99007.47;;;15.53;100.00
48652;BME280;34442;52.362;-1.302;2023-07-24T02:37:18;99009.09;;;15.49;100.00
48652;BME280;34442;52.362;-1.302;2023-07-24T02:39:44;98999.88;;;15.65;100.00
48652;BME280;34442;52.362;-1.302;2023-07-24T02:42:09;99007.16;;;15.54;100.00
48652;BME280;34442;52.362;-1.302;2023-07-24T02:44:35;99011.00;;;15.43;100.00
48652;BME280;34442;52.362;-1.302;2023-07-24T02:47:00;99017.75;;;15.41;100.00
48652;BME280;34442;52.362;-1.302;2023-07-24T02:49:25;99007.72;;;15.56;100.00
48652;BME280;34442;52.362;-1.302;2023-07-24T02:51:51;99016.94;;;15.40;100.00
48652;BME280;34442;52.362;-1.302;2023-07-24T02:54:16;99018.84;;;15.29;100.00
48652;BME280;34442;52.362;-1.302;2023-07-24T02:56:41;99015.88;;;15.21;100.00
48652;BME280;34442;52.362;-1.302;2023-07-24T02:59:07;99028.03;;;15.38;100.00
48652;BME280;34442;52.362;-1.302;2023-07-24T03:01:32;99020.75;;;15.44;100.00
48652;BME280;34442;52.362;-1.302;2023-07-24T03:03:58;99015.03;;;15.51;100.00
48652;BME280;34442;52.362;-1.302;2023-07-24T03:06:23;99022.63;;;15.44;100.00
48652;BME280;34442;52.362;-1.302;2023-07-24T03:08:49;99021.28;;;15.36;100.00
48652;BME280;34442;52.362;-1.302;2023-07-24T03:11:14;99018.56;;;15.51;100.00
48652;BME280;34442;52.362;-1.302;2023-07-24T03:13:39;99025.59;;;15.42;100.00
48652;BME280;34442;52.362;-1.302;2023-07-24T03:16:06;99026.97;;;15.39;100.00
48652;BME280;34442;52.362;-1.302;2023-07-24T03:18:31;99030.22;;;15.42;100.00
48652;BME280;34442;52.362;-1.302;2023-07-24T03:20:58;99026.97;;;15.39;100.00
48652;BME280;34442;52.362;-1.302;2023-07-24T03:23:24;99022.63;;;15.49;100.00
48652;BME280;34442;52.362;-1.302;2023-07-24T03:25:49;99029.13;;;15.48;100.00
48652;BME280;34442;52.362;-1.302;2023-07-24T03:28:15;99028.06;;;15.44;100.00
48652;BME280;34442;52.362;-1.302;2023-07-24T03:30:40;99019.38;;;15.52;100.00
48652;BME280;34442;52.362;-1.302;2023-07-24T03:33:05;99023.44;;;15.54;100.00
48652;BME280;34442;52.362;-1.302;2023-07-24T03:35:32;99023.16;;;15.46;100.00
48652;BME280;34442;52.362;-1.302;2023-07-24T03:37:57;99030.47;;;15.45;100.00
48652;BME280;34442;52.362;-1.302;2023-07-24T03:40:22;99024.25;;;15.50;100.00
48652;BME280;34442;52.362;-1.302;2023-07-24T03:42:48;99026.13;;;15.54;100.00
48652;BME280;34442;52.362;-1.302;2023-07-24T03:45:13;99032.66;;;15.69;100.00
48652;BME280;34442;52.362;-1.302;2023-07-24T03:47:38;99035.34;;;15.63;100.00
48652;BME280;34442;52.362;-1.302;2023-07-24T03:50:04;99034.81;;;15.61;100.00
48652;BME280;34442;52.362;-1.302;2023-07-24T03:52:30;99038.34;;;15.72;100.00
48652;BME280;34442;52.362;-1.302;2023-07-24T03:54:55;99039.16;;;15.52;100.00
48652;BME280;34442;52.362;-1.302;2023-07-24T03:57:20;99047.00;;;15.44;100.00
48652;BME280;34442;52.362;-1.302;2023-07-24T03:59:46;99042.66;;;15.43;100.00
48652;BME280;34442;52.362;-1.302;2023-07-24T04:02:11;99060.25;;;15.50;100.00
48652;BME280;34442;52.362;-1.302;2023-07-24T04:04:37;99058.38;;;15.41;100.00
48652;BME280;34442;52.362;-1.302;2023-07-24T04:07:03;99059.75;;;15.48;100.00
48652;BME280;34442;52.362;-1.302;2023-07-24T04:09:28;99054.03;;;15.55;100.00
48652;BME280;34442;52.362;-1.302;2023-07-24T04:11:54;99051.34;;;15.29;100.00
48652;BME280;34442;52.362;-1.302;2023-07-24T04:14:19;99055.97;;;15.39;100.00
48652;BME280;34442;52.362;-1.302;2023-07-24T04:16:45;99056.75;;;15.50;100.00
48652;BME280;34442;52.362;-1.302;2023-07-24T04:19:10;99055.94;;;15.49;100.00
48652;BME280;34442;52.362;-1.302;2023-07-24T04:21:36;99055.13;;;15.44;100.00
48652;BME280;34442;52.362;-1.302;2023-07-24T04:24:01;99055.94;;;15.29;100.00
48652;BME280;34442;52.362;-1.302;2023-07-24T04:26:26;99061.63;;;15.27;100.00
48652;BME280;34442;52.362;-1.302;2023-07-24T04:28:52;99064.84;;;15.09;100.00
48652;BME280;34442;52.362;-1.302;2023-07-24T04:31:17;99063.75;;;15.05;100.00
48652;BME280;34442;52.362;-1.302;2023-07-24T04:33:42;99071.88;;;15.05;100.00
48652;BME280;34442;52.362;-1.302;2023-07-24T04:36:08;99062.97;;;15.14;100.00
48652;BME280;34442;52.362;-1.302;2023-07-24T04:38:33;99070.25;;;15.14;100.00
48652;BME280;34442;52.362;-1.302;2023-07-24T04:41:02;99071.63;;;15.22;100.00
48652;BME280;34442;52.362;-1.302;2023-07-24T04:43:28;99072.75;;;15.31;100.00
48652;BME280;34442;52.362;-1.302;2023-07-24T04:45:53;99067.84;;;15.18;100.00
48652;BME280;34442;52.362;-1.302;2023-07-24T04:48:19;99072.72;;;15.10;100.00
48652;BME280;34442;52.362;-1.302;2023-07-24T04:50:44;99071.63;;;15.11;100.00
48652;BME280;34442;52.362;-1.302;2023-07-24T04:53:09;99075.97;;;15.12;100.00
48652;BME280;34442;52.362;-1.302;2023-07-24T04:55:35;99081.38;;;15.12;100.00
48652;BME280;34442;52.362;-1.302;2023-07-24T04:58:00;99087.59;;;15.03;100.00
48652;BME280;34442;52.362;-1.302;2023-07-24T05:00:26;99090.81;;;15.05;100.00
48652;BME280;34442;52.362;-1.302;2023-07-24T05:02:51;99094.34;;;15.05;100.00
48652;BME280;34442;52.362;-1.302;2023-07-24T05:05:17;99092.97;;;14.93;100.00
48652;BME280;34442;52.362;-1.302;2023-07-24T05:07:42;99100.03;;;15.04;100.00
48652;BME280;34442;52.362;-1.302;2023-07-24T05:10:08;99108.38;;;14.92;100.00
48652;BME280;34442;52.362;-1.302;2023-07-24T05:12:33;99114.09;;;15.06;100.00
48652;BME280;34442;52.362;-1.302;2023-07-24T05:14:58;99110.34;;;15.07;100.00
48652;BME280;34442;52.362;-1.302;2023-07-24T05:17:24;99102.22;;;15.07;100.00
48652;BME280;34442;52.362;-1.302;2023-07-24T05:19:49;99109.25;;;15.03;100.00
48652;BME280;34442;52.362;-1.302;2023-07-24T05:22:15;99126.28;;;15.03;100.00
48652;BME280;34442;52.362;-1.302;2023-07-24T05:24:40;99121.38;;;14.90;100.00
48652;BME280;34442;52.362;-1.302;2023-07-24T05:27:06;99120.81;;;14.83;100.00
48652;BME280;34442;52.362;-1.302;2023-07-24T05:29:32;99123.28;;;14.89;100.00
48652;BME280;34442;52.362;-1.302;2023-07-24T05:31:57;99134.13;;;15.00;100.00
48652;BME280;34442;52.362;-1.302;2023-07-24T05:34:24;99134.69;;;15.07;100.00
48652;BME280;34442;52.362;-1.302;2023-07-24T05:36:49;99134.97;;;15.10;100.00
48652;BME280;34442;52.362;-1.302;2023-07-24T05:39:15;99135.78;;;15.16;100.00
48652;BME280;34442;52.362;-1.302;2023-07-24T05:41:40;99136.31;;;15.13;100.00
48652;BME280;34442;52.362;-1.302;2023-07-24T05:44:05;99142.22;;;14.95;100.00
48652;BME280;34442;52.362;-1.302;2023-07-24T05:46:31;99143.03;;;14.90;100.00
48652;BME280;34442;52.362;-1.302;2023-07-24T05:48:56;99158.94;;;14.76;100.00
48652;BME280;34442;52.362;-1.302;2023-07-24T05:51:22;99162.47;;;14.82;100.00
48652;BME280;34442;52.362;-1.302;2023-07-24T05:53:48;99156.22;;;14.76;100.00
48652;BME280;34442;52.362;-1.302;2023-07-24T05:56:13;99159.50;;;14.78;100.00
48652;BME280;34442;52.362;-1.302;2023-07-24T05:58:39;99163.00;;;14.74;100.00
48652;BME280;34442;52.362;-1.302;2023-07-24T06:01:04;99161.91;;;14.80;100.00
48652;BME280;34442;52.362;-1.302;2023-07-24T06:03:30;99168.13;;;14.70;100.00
48652;BME280;34442;52.362;-1.302;2023-07-24T06:05:56;99165.41;;;14.70;100.00
48652;BME280;34442;52.362;-1.302;2023-07-24T06:08:22;99171.09;;;14.74;100.00
48652;BME280;34442;52.362;-1.302;2023-07-24T06:10:49;99166.22;;;14.76;100.00
48652;BME280;34442;52.362;-1.302;2023-07-24T06:13:15;99171.03;;;14.63;100.00
48652;BME280;34442;52.362;-1.302;2023-07-24T06:15:41;99175.72;;;14.73;100.00
48652;BME280;34442;52.362;-1.302;2023-07-24T06:18:06;99174.13;;;14.82;100.00
48652;BME280;34442;52.362;-1.302;2023-07-24T06:20:32;99182.53;;;14.86;100.00
48652;BME280;34442;52.362;-1.302;2023-07-24T06:22:57;99181.22;;;14.94;100.00
48652;BME280;34442;52.362;-1.302;2023-07-24T06:25:23;99184.94;;;14.82;100.00
48652;BME280;34442;52.362;-1.302;2023-07-24T06:27:48;99184.38;;;14.80;100.00
48652;BME280;34442;52.362;-1.302;2023-07-24T06:30:14;99187.34;;;14.74;100.00
48652;BME280;34442;52.362;-1.302;2023-07-24T06:32:39;99188.34;;;14.62;100.00
48652;BME280;34442;52.362;-1.302;2023-07-24T06:35:05;99187.28;;;14.69;100.00
48652;BME280;34442;52.362;-1.302;2023-07-24T06:37:30;99188.09;;;14.64;100.00
48652;BME280;34442;52.362;-1.302;2023-07-24T06:39:56;99195.41;;;14.26;100.00
48652;BME280;34442;52.362;-1.302;2023-07-24T06:42:21;99203.16;;;14.50;100.00
48652;BME280;34442;52.362;-1.302;2023-07-24T06:44:47;99195.50;;;14.42;100.00
48652;BME280;34442;52.362;-1.302;2023-07-24T06:47:12;99199.84;;;14.43;100.00
48652;BME280;34442;52.362;-1.302;2023-07-24T06:49:37;99216.03;;;14.37;100.00
48652;BME280;34442;52.362;-1.302;2023-07-24T06:52:03;99221.00;;;14.51;100.00
48652;BME280;34442;52.362;-1.302;2023-07-24T06:54:28;99218.31;;;14.51;100.00
48652;BME280;34442;52.362;-1.302;2023-07-24T06:56:54;99215.91;;;14.54;100.00
48652;BME280;34442;52.362;-1.302;2023-07-24T06:59:19;99220.69;;;14.47;100.00
48652;BME280;34442;52.362;-1.302;2023-07-24T07:01:45;99224.44;;;14.41;100.00
48652;BME280;34442;52.362;-1.302;2023-07-24T07:04:10;99222.28;;;14.43;100.00
48652;BME280;34442;52.362;-1.302;2023-07-24T07:06:35;99228.75;;;14.37;100.00
48652;BME280;34442;52.362;-1.302;2023-07-24T07:09:01;99234.34;;;14.30;100.00
48652;BME280;34442;52.362;-1.302;2023-07-24T07:11:26;99228.41;;;14.28;100.00
48652;BME280;34442;52.362;-1.302;2023-07-24T07:13:51;99227.53;;;14.23;100.00
48652;BME280;34442;52.362;-1.302;2023-07-24T07:16:17;99228.41;;;14.28;100.00
48652;BME280;34442;52.362;-1.302;2023-07-24T07:18:44;99234.94;;;14.32;100.00
48652;BME280;34442;52.362;-1.302;2023-07-24T07:21:09;99226.00;;;14.32;100.00
48652;BME280;34442;52.362;-1.302;2023-07-24T07:23:35;99234.69;;;14.39;100.00
48652;BME280;34442;52.362;-1.302;2023-07-24T07:26:00;99230.69;;;14.09;100.00
48652;BME280;34442;52.362;-1.302;2023-07-24T07:28:25;99231.28;;;14.17;100.00
48652;BME280;34442;52.362;-1.302;2023-07-24T07:30:51;99234.53;;;14.19;100.00
48652;BME280;34442;52.362;-1.302;2023-07-24T07:33:16;99244.22;;;14.14;100.00
48652;BME280;34442;52.362;-1.302;2023-07-24T07:35:42;99252.50;;;14.03;100.00
48652;BME280;34442;52.362;-1.302;2023-07-24T07:38:07;99250.28;;;13.95;100.00
48652;BME280;34442;52.362;-1.302;2023-07-24T07:40:33;99244.88;;;13.95;100.00
48652;BME280;34442;52.362;-1.302;2023-07-24T07:42:58;99248.19;;;14.02;100.00
48652;BME280;34442;52.362;-1.302;2023-07-24T07:45:24;99250.19;;;14.11;100.00
48652;BME280;34442;52.362;-1.302;2023-07-24T07:47:49;99243.34;;;14.04;100.00
48652;BME280;34442;52.362;-1.302;2023-07-24T07:50:15;99253.09;;;14.05;100.00
48652;BME280;34442;52.362;-1.302;2023-07-24T07:52:40;99256.94;;;14.14;100.00
48652;BME280;34442;52.362;-1.302;2023-07-24T07:55:06;99251.19;;;14.05;100.00
48652;BME280;34442;52.362;-1.302;2023-07-24T07:57:34;99254.19;;;14.09;100.00
48652;BME280;34442;52.362;-1.302;2023-07-24T08:00:01;99253.69;;;14.12;100.00
48652;BME280;34442;52.362;-1.302;2023-07-24T08:02:26;99252.81;;;14.06;100.00
48652;BME280;34442;52.362;-1.302;2023-07-24T08:04:52;99264.53;;;14.17;100.00
48652;BME280;34442;52.362;-1.302;2023-07-24T08:07:17;99266.44;;;14.17;100.00
48652;BME280;34442;52.362;-1.302;2023-07-24T08:09:42;99262.09;;;14.15;100.00
48652;BME280;34442;52.362;-1.302;2023-07-24T08:12:08;99260.25;;;14.21;100.00
48652;BME280;34442;52.362;-1.302;2023-07-24T08:14:33;99271.09;;;14.26;100.00
48652;BME280;34442;52.362;-1.302;2023-07-24T08:16:59;99271.06;;;14.21;100.00
48652;BME280;34442;52.362;-1.302;2023-07-24T08:19:27;99276.50;;;14.26;100.00
48652;BME280;34442;52.362;-1.302;2023-07-24T08:21:53;99276.84;;;14.35;100.00
48652;BME280;34442;52.362;-1.302;2023-07-24T08:24:18;99272.34;;;14.46;100.00
48652;BME280;34442;52.362;-1.302;2023-07-24T08:26:44;99271.63;;;14.55;100.00
48652;BME280;34442;52.362;-1.302;2023-07-24T08:29:09;99280.00;;;14.54;100.00
48652;BME280;34442;52.362;-1.302;2023-07-24T08:31:34;99274.28;;;14.50;100.00
48652;BME280;34442;52.362;-1.302;2023-07-24T08:34:00;99276.72;;;14.52;100.00
48652;BME280;34442;52.362;-1.302;2023-07-24T08:36:25;99276.47;;;14.53;100.00
48652;BME280;34442;52.362;-1.302;2023-07-24T08:38:50;99278.91;;;14.55;100.00
48652;BME280;34442;52.362;-1.302;2023-07-24T08:41:16;99283.16;;;14.46;100.00
48652;BME280;34442;52.362;-1.302;2023-07-24T08:43:42;99285.94;;;14.56;100.00
48652;BME280;34442;52.362;-1.302;2023-07-24T08:46:09;99285.13;;;14.55;100.00
48652;BME280;34442;52.362;-1.302;2023-07-24T08:48:36;99291.06;;;14.52;100.00
48652;BME280;34442;52.362;-1.302;2023-07-24T08:51:03;99282.41;;;14.50;100.00
48652;BME280;34442;52.362;-1.302;2023-07-24T08:53:29;99287.84;;;14.55;100.00
48652;BME280;34442;52.362;-1.302;2023-07-24T08:55:59;99294.59;;;14.53;100.00
48652;BME280;34442;52.362;-1.302;2023-07-24T08:58:25;99284.91;;;14.57;100.00
48652;BME280;34442;52.362;-1.302;2023-07-24T09:00:52;99285.44;;;14.59;100.00
48652;BME280;34442;52.362;-1.302;2023-07-24T09:03:18;99286.53;;;14.58;100.00
48652;BME280;34442;52.362;-1.302;2023-07-24T09:05:44;99291.13;;;14.57;100.00
48652;BME280;34442;52.362;-1.302;2023-07-24T09:08:10;99294.13;;;14.61;100.00
48652;BME280;34442;52.362;-1.302;2023-07-24T09:10:36;99300.25;;;14.51;100.00
48652;BME280;34442;52.362;-1.302;2023-07-24T09:13:02;99298.00;;;14.43;100.00
48652;BME280;34442;52.362;-1.302;2023-07-24T09:15:38;99297.22;;;14.48;100.00
48652;BME280;34442;52.362;-1.302;2023-07-24T09:18:04;99294.66;;;14.63;100.00
48652;BME280;34442;52.362;-1.302;2023-07-24T09:20:38;99305.28;;;14.70;100.00
48652;BME280;34442;52.362;-1.302;2023-07-24T09:23:03;99297.06;;;14.59;100.00
48652;BME280;34442;52.362;-1.302;2023-07-24T09:25:30;99296.28;;;14.64;100.00
48652;BME280;34442;52.362;-1.302;2023-07-24T09:27:58;99316.63;;;14.72;100.00
48652;BME280;34442;52.362;-1.302;2023-07-24T09:30:23;99302.88;;;14.73;100.00
48652;BME280;34442;52.362;-1.302;2023-07-24T09:32:53;99311.00;;;14.78;100.00
48652;BME280;34442;52.362;-1.302;2023-07-24T09:35:19;99316.47;;;14.88;100.00
48652;BME280;34442;52.362;-1.302;2023-07-24T09:37:45;99315.69;;;14.93;100.00
48652;BME280;34442;52.362;-1.302;2023-07-24T09:40:12;99321.09;;;14.93;100.00
48652;BME280;34442;52.362;-1.302;2023-07-24T09:42:39;99317.09;;;15.01;100.00
48652;BME280;34442;52.362;-1.302;2023-07-24T09:45:07;99322.47;;;14.96;100.00
48652;BME280;34442;52.362;-1.302;2023-07-24T09:47:34;99327.34;;;14.94;100.00
48652;BME280;34442;52.362;-1.302;2023-07-24T09:50:03;99329.00;;;15.00;100.00
48652;BME280;34442;52.362;-1.302;2023-07-24T09:52:31;99332.28;;;15.02;100.00
48652;BME280;34442;52.362;-1.302;2023-07-24T09:55:05;99334.38;;;14.95;100.00
48652;BME280;34442;52.362;-1.302;2023-07-24T09:57:35;99342.47;;;14.89;100.00
48652;BME280;34442;52.362;-1.302;2023-07-24T10:00:01;99344.91;;;14.91;100.00
48652;BME280;34442;52.362;-1.302;2023-07-24T10:02:27;99344.63;;;14.87;100.00
48652;BME280;34442;52.362;-1.302;2023-07-24T10:04:54;99344.31;;;14.84;100.00
48652;BME280;34442;52.362;-1.302;2023-07-24T10:07:20;99348.38;;;14.81;100.00
48652;BME280;34442;52.362;-1.302;2023-07-24T10:09:48;99355.06;;;14.74;100.00
48652;BME280;34442;52.362;-1.302;2023-07-24T10:12:18;99362.59;;;14.67;100.00
48652;BME280;34442;52.362;-1.302;2023-07-24T10:14:46;99350.25;;;14.81;100.00
48652;BME280;34442;52.362;-1.302;2023-07-24T10:17:11;99362.22;;;14.90;100.00
48652;BME280;34442;52.362;-1.302;2023-07-24T10:19:41;99357.97;;;15.04;100.00
48652;BME280;34442;52.362;-1.302;2023-07-24T10:22:18;99352.84;;;15.03;100.00
48652;BME280;34442;52.362;-1.302;2023-07-24T10:24:47;99360.38;;;14.96;100.00
48652;BME280;34442;52.362;-1.302;2023-07-24T10:27:13;99370.38;;;14.95;100.00
48652;BME280;34442;52.362;-1.302;2023-07-24T10:29:38;99369.63;;;15.05;100.00
48652;BME280;34442;52.362;-1.302;2023-07-24T10:32:16;99371.78;;;15.03;100.00
48652;BME280;34442;52.362;-1.302;2023-07-24T10:34:42;99371.06;;;15.18;100.00
48652;BME280;34442;52.362;-1.302;2023-07-24T10:37:08;99379.00;;;15.34;100.00
48652;BME280;34442;52.362;-1.302;2023-07-24T10:39:41;99390.72;;;15.45;100.00
48652;BME280;34442;52.362;-1.302;2023-07-24T10:42:10;99391.72;;;15.29;100.00
48652;BME280;34442;52.362;-1.302;2023-07-24T10:44:36;99376.22;;;15.19;100.00
48652;BME280;34442;52.362;-1.302;2023-07-24T10:47:03;99381.06;;;15.17;100.00
48652;BME280;34442;52.362;-1.302;2023-07-24T10:49:28;99381.66;;;15.24;100.00
48652;BME280;34442;52.362;-1.302;2023-07-24T10:51:57;99383.41;;;15.46;100.00
48652;BME280;34442;52.362;-1.302;2023-07-24T10:54:23;99386.13;;;15.51;100.00
48652;BME280;34442;52.362;-1.302;2023-07-24T10:56:49;99398.34;;;15.53;100.00
48652;BME280;34442;52.362;-1.302;2023-07-24T10:59:14;99389.94;;;15.55;100.00
48652;BME280;34442;52.362;-1.302;2023-07-24T11:01:42;99402.06;;;15.42;100.00
48652;BME280;34442;52.362;-1.302;2023-07-24T11:04:08;99395.91;;;15.09;100.00
48652;BME280;34442;52.362;-1.302;2023-07-24T11:06:35;99394.06;;;15.15;100.00
48652;BME280;34442;52.362;-1.302;2023-07-24T11:09:00;99397.03;;;15.13;100.00
48652;BME280;34442;52.362;-1.302;2023-07-24T11:11:30;99405.19;;;15.19;100.00
48652;BME280;34442;52.362;-1.302;2023-07-24T11:13:56;99400.13;;;15.32;100.00
48652;BME280;34442;52.362;-1.302;2023-07-24T11:16:21;99409.09;;;15.38;100.00
48652;BME280;34442;52.362;-1.302;2023-07-24T11:18:50;99406.47;;;15.53;100.00
48652;BME280;34442;52.362;-1.302;2023-07-24T11:21:17;99410.63;;;15.66;100.00
48652;BME280;34442;52.362;-1.302;2023-07-24T11:23:51;99416.34;;;15.70;100.00
48652;BME280;34442;52.362;-1.302;2023-07-24T11:26:24;99419.03;;;15.65;100.00
48652;BME280;34442;52.362;-1.302;2023-07-24T11:28:51;99419.22;;;15.58;100.00
48652;BME280;34442;52.362;-1.302;2023-07-24T11:31:17;99427.38;;;15.63;100.00
48652;BME280;34442;52.362;-1.302;2023-07-24T11:33:50;99422.59;;;15.75;100.00
48652;BME280;34442;52.362;-1.302;2023-07-24T11:36:16;99417.22;;;15.80;100.00
48652;BME280;34442;52.362;-1.302;2023-07-24T11:38:44;99413.50;;;16.02;100.00
48652;BME280;34442;52.362;-1.302;2023-07-24T11:41:10;99425.94;;;15.98;100.00
48652;BME280;34442;52.362;-1.302;2023-07-24T11:43:45;99427.56;;;15.94;100.00
48652;BME280;34442;52.362;-1.302;2023-07-24T11:46:11;99432.44;;;15.97;100.00
48652;BME280;34442;52.362;-1.302;2023-07-24T11:48:41;99430.31;;;16.09;100.00
48652;BME280;34442;52.362;-1.302;2023-07-24T11:51:06;99426.03;;;16.23;100.00
48652;BME280;34442;52.362;-1.302;2023-07-24T11:53:31;99427.13;;;16.32;100.00
48652;BME280;34442;52.362;-1.302;2023-07-24T11:56:00;99422.53;;;16.43;100.00
48652;BME280;34442;52.362;-1.302;2023-07-24T11:58:29;99426.06;;;16.38;100.00
48652;BME280;34442;52.362;-1.302;2023-07-24T12:00:55;99437.44;;;16.35;100.00
48652;BME280;34442;52.362;-1.302;2023-07-24T12:03:22;99439.06;;;16.42;100.00
48652;BME280;34442;52.362;-1.302;2023-07-24T12:05:49;99432.00;;;16.41;100.00
48652;BME280;34442;52.362;-1.302;2023-07-24T12:08:16;99439.63;;;16.38;100.00
48652;BME280;34442;52.362;-1.302;2023-07-24T12:10:43;99433.09;;;16.45;100.00
48652;BME280;34442;52.362;-1.302;2023-07-24T12:13:09;99441.25;;;16.45;100.00
48652;BME280;34442;52.362;-1.302;2023-07-24T12:15:35;99445.34;;;16.52;100.00
48652;BME280;34442;52.362;-1.302;2023-07-24T12:18:01;99443.72;;;16.56;100.00
48652;BME280;34442;52.362;-1.302;2023-07-24T12:20:27;99441.28;;;16.65;100.00
48652;BME280;34442;52.362;-1.302;2023-07-24T12:22:53;99438.84;;;16.58;100.00
48652;BME280;34442;52.362;-1.302;2023-07-24T12:25:19;99443.44;;;16.43;100.00
48652;BME280;34442;52.362;-1.302;2023-07-24T12:27:45;99446.38;;;16.26;100.00
48652;BME280;34442;52.362;-1.302;2023-07-24T12:30:11;99448.28;;;16.30;100.00
48652;BME280;34442;52.362;-1.302;2023-07-24T12:32:36;99445.00;;;16.28;100.00
48652;BME280;34442;52.362;-1.302;2023-07-24T12:35:02;99452.09;;;16.40;100.00